createdAt,value
2017-09-05T00:00:23.055Z,1018.43
2017-09-05T00:01:32.231Z,1018.44
2017-09-05T00:02:41.076Z,1018.49
2017-09-05T00:03:49.970Z,1018.49
2017-09-05T00:04:58.811Z,1018.49
2017-09-05T00:06:07.654Z,1018.5
2017-09-05T00:07:16.497Z,1018.49
2017-09-05T00:08:25.339Z,1018.49
2017-09-05T00:09:34.330Z,1018.46
2017-09-05T00:10:43.173Z,1018.46
2017-09-05T00:11:52.015Z,1018.46
2017-09-05T00:13:01.194Z,1018.43
2017-09-05T00:14:10.038Z,1018.41
2017-09-05T00:15:19.032Z,1018.36
2017-09-05T00:16:27.874Z,1018.38
2017-09-05T00:17:36.717Z,1018.37
2017-09-05T00:18:45.561Z,1018.39
2017-09-05T00:19:54.404Z,1018.36
2017-09-05T00:21:03.401Z,1018.32
2017-09-05T00:22:12.242Z,1018.35
2017-09-05T00:23:21.086Z,1018.36
2017-09-05T00:24:29.931Z,1018.36
2017-09-05T00:25:38.776Z,1018.38
2017-09-05T00:26:47.718Z,1018.37
2017-09-05T00:27:56.561Z,1018.32
2017-09-05T00:29:05.407Z,1018.31
2017-09-05T00:30:14.287Z,1018.25
2017-09-05T00:31:23.095Z,1018.25
2017-09-05T00:32:32.085Z,1018.29
2017-09-05T00:33:40.929Z,1018.26
2017-09-05T00:34:49.770Z,1018.22
2017-09-05T00:35:58.614Z,1018.23
2017-09-05T00:37:07.455Z,1018.18
2017-09-05T00:38:16.350Z,1018.2
2017-09-05T00:39:25.219Z,1018.18
2017-09-05T00:40:34.042Z,1018.15
2017-09-05T00:41:42.883Z,1018.16
2017-09-05T00:42:51.726Z,1018.11
2017-09-05T00:44:00.952Z,1018.1
2017-09-05T00:45:09.795Z,1018.09
2017-09-05T00:46:18.636Z,1018.09
2017-09-05T00:47:27.481Z,1018.07
2017-09-05T00:48:36.324Z,1018.09
2017-09-05T00:49:45.315Z,1018.12
2017-09-05T00:50:54.158Z,1018.13
2017-09-05T00:52:03.000Z,1018.08
2017-09-05T00:53:11.840Z,1018.1
2017-09-05T00:54:20.682Z,1018.1
2017-09-05T00:55:29.576Z,1018.06
2017-09-05T00:56:38.451Z,1018.11
2017-09-05T00:57:47.262Z,1018.12
2017-09-05T00:58:56.107Z,1018.13
2017-09-05T01:00:04.950Z,1018.09
2017-09-05T01:01:13.841Z,1018.1
2017-09-05T01:02:22.682Z,1018.12
2017-09-05T01:03:31.524Z,1018.05
2017-09-05T01:04:40.366Z,1018.1
2017-09-05T01:05:49.209Z,1018.1
2017-09-05T01:06:58.152Z,1018.16
2017-09-05T01:08:06.998Z,1018.27
2017-09-05T01:09:15.860Z,1018.3
2017-09-05T01:10:24.679Z,1018.25
2017-09-05T01:11:33.524Z,1018.28
2017-09-05T01:12:42.520Z,1018.29
2017-09-05T01:13:51.363Z,1018.29
2017-09-05T01:15:00.207Z,1018.32
2017-09-05T01:16:09.050Z,1018.33
2017-09-05T01:17:17.894Z,1018.36
2017-09-05T01:18:26.836Z,1018.38
2017-09-05T01:19:35.678Z,1018.35
2017-09-05T01:20:44.520Z,1018.43
2017-09-05T01:21:53.360Z,1018.33
2017-09-05T01:23:02.207Z,1018.33
2017-09-05T01:24:11.200Z,1018.31
2017-09-05T01:25:20.044Z,1018.31
2017-09-05T01:26:28.885Z,1018.26
2017-09-05T01:27:37.728Z,1018.29
2017-09-05T01:28:46.572Z,1018.33
2017-09-05T01:29:55.565Z,1018.32
2017-09-05T01:31:04.412Z,1018.31
2017-09-05T01:32:13.252Z,1018.33
2017-09-05T01:33:22.095Z,1018.32
2017-09-05T01:34:30.938Z,1018.35
2017-09-05T01:35:39.879Z,1018.32
2017-09-05T01:36:48.722Z,1018.35
2017-09-05T01:37:57.564Z,1018.39
2017-09-05T01:39:06.408Z,1018.33
2017-09-05T01:40:15.250Z,1018.39
2017-09-05T01:41:24.148Z,1018.42
2017-09-05T01:42:32.991Z,1018.45
2017-09-05T01:43:41.832Z,1018.37
2017-09-05T01:44:50.676Z,1018.39
2017-09-05T01:45:59.517Z,1018.43
2017-09-05T01:47:08.360Z,1018.41
2017-09-05T01:48:17.205Z,1018.4
2017-09-05T01:49:26.050Z,1018.42
2017-09-05T01:50:34.893Z,1018.42
2017-09-05T01:51:43.738Z,1018.37
2017-09-05T01:52:52.630Z,1018.36
2017-09-05T01:54:01.471Z,1018.39
2017-09-05T01:55:10.316Z,1018.32
2017-09-05T01:56:19.160Z,1018.34
2017-09-05T01:57:28.003Z,1018.35
2017-09-05T01:58:37.227Z,1018.33
2017-09-05T01:59:46.070Z,1018.33
2017-09-05T02:00:54.918Z,1018.24
2017-09-05T02:02:03.761Z,1018.23
2017-09-05T02:03:12.604Z,1018.21
2017-09-05T02:04:21.595Z,1018.24
2017-09-05T02:05:30.442Z,1018.23
2017-09-05T02:06:39.282Z,1018.18
2017-09-05T02:07:48.124Z,1018.16
2017-09-05T02:08:56.968Z,1018.16
2017-09-05T02:10:06.012Z,1018.16
2017-09-05T02:11:14.856Z,1018.18
2017-09-05T02:12:23.700Z,1018.15
2017-09-05T02:13:32.543Z,1018.11
2017-09-05T02:14:41.388Z,1018.14
2017-09-05T02:15:50.614Z,1018.1
2017-09-05T02:16:59.460Z,1018.08
2017-09-05T02:18:08.300Z,1018.1
2017-09-05T02:19:17.145Z,1018.04
2017-09-05T02:20:25.988Z,1018.08
2017-09-05T02:21:34.932Z,1018.08
2017-09-05T02:22:43.775Z,1018.09
2017-09-05T02:23:52.616Z,1018.05
2017-09-05T02:25:01.458Z,1017.99
2017-09-05T02:26:10.299Z,1017.97
2017-09-05T02:27:19.294Z,1017.96
2017-09-05T02:28:28.469Z,1017.97
2017-09-05T02:29:37.316Z,1017.95
2017-09-05T02:30:46.153Z,1017.97
2017-09-05T02:31:55.327Z,1017.96
2017-09-05T02:33:04.322Z,1017.92
2017-09-05T02:34:13.168Z,1017.96
2017-09-05T02:35:22.007Z,1017.91
2017-09-05T02:36:30.850Z,1017.91
2017-09-05T02:37:39.694Z,1017.91
2017-09-05T02:38:48.689Z,1017.92
2017-09-05T02:39:57.533Z,1017.94
2017-09-05T02:41:06.378Z,1018
2017-09-05T02:42:15.223Z,1018.06
2017-09-05T02:43:24.118Z,1018.06
2017-09-05T02:44:33.111Z,1018.1
2017-09-05T02:45:41.952Z,1018.07
2017-09-05T02:46:50.798Z,1018.04
2017-09-05T02:47:59.644Z,1018
2017-09-05T02:49:08.494Z,1017.99
2017-09-05T02:50:17.384Z,1018.01
2017-09-05T02:51:26.228Z,1018
2017-09-05T02:52:35.073Z,1017.99
2017-09-05T02:53:43.963Z,1018.04
2017-09-05T02:54:52.764Z,1017.98
2017-09-05T02:56:01.988Z,1017.94
2017-09-05T02:57:10.834Z,1017.95
2017-09-05T02:58:19.679Z,1018
2017-09-05T02:59:28.521Z,1018.02
2017-09-05T03:00:37.365Z,1018.04
2017-09-05T03:01:46.357Z,1018.02
2017-09-05T03:02:55.200Z,1017.98
2017-09-05T03:04:04.043Z,1018
2017-09-05T03:05:12.890Z,1017.96
2017-09-05T03:06:21.732Z,1017.97
2017-09-05T03:07:30.725Z,1017.94
2017-09-05T03:08:39.569Z,1017.98
2017-09-05T03:09:48.411Z,1017.98
2017-09-05T03:10:57.252Z,1017.93
2017-09-05T03:12:06.095Z,1017.94
2017-09-05T03:13:15.086Z,1017.88
2017-09-05T03:14:23.929Z,1017.88
2017-09-05T03:15:32.773Z,1017.86
2017-09-05T03:16:41.617Z,1017.89
2017-09-05T03:17:50.460Z,1017.91
2017-09-05T03:18:59.552Z,1017.92
2017-09-05T03:20:08.397Z,1017.93
2017-09-05T03:21:17.262Z,1017.97
2017-09-05T03:22:26.086Z,1017.91
2017-09-05T03:23:34.929Z,1017.95
2017-09-05T03:24:43.924Z,1017.98
2017-09-05T03:25:52.768Z,1017.97
2017-09-05T03:27:01.950Z,1018.02
2017-09-05T03:28:10.794Z,1017.96
2017-09-05T03:29:19.640Z,1017.94
2017-09-05T03:30:28.634Z,1017.9
2017-09-05T03:31:37.477Z,1017.9
2017-09-05T03:32:46.319Z,1017.88
2017-09-05T03:33:55.511Z,1017.87
2017-09-05T03:35:04.352Z,1017.89
2017-09-05T03:36:13.441Z,1017.93
2017-09-05T03:37:22.282Z,1017.94
2017-09-05T03:38:31.123Z,1017.99
2017-09-05T03:39:39.961Z,1018
2017-09-05T03:40:48.803Z,1018.03
2017-09-05T03:41:57.794Z,1018.04
2017-09-05T03:43:06.635Z,1018.04
2017-09-05T03:44:15.476Z,1017.99
2017-09-05T03:45:24.316Z,1018.01
2017-09-05T03:46:33.157Z,1017.99
2017-09-05T03:47:42.046Z,1018
2017-09-05T03:48:50.886Z,1017.97
2017-09-05T03:49:59.725Z,1018.02
2017-09-05T03:51:08.566Z,1017.97
2017-09-05T03:52:17.407Z,1017.98
2017-09-05T03:53:26.349Z,1018
2017-09-05T03:54:35.189Z,1018.05
2017-09-05T03:55:44.029Z,1018.08
2017-09-05T03:56:52.868Z,1018.08
2017-09-05T03:58:01.710Z,1018.1
2017-09-05T03:59:10.600Z,1018.16
2017-09-05T04:00:19.442Z,1018.14
2017-09-05T04:01:28.283Z,1018.2
2017-09-05T04:02:37.124Z,1018.22
2017-09-05T04:03:45.968Z,1018.28
2017-09-05T04:04:54.913Z,1018.32
2017-09-05T04:06:03.757Z,1018.31
2017-09-05T04:07:12.600Z,1018.32
2017-09-05T04:08:21.439Z,1018.28
2017-09-05T04:09:30.283Z,1018.28
2017-09-05T04:10:39.174Z,1018.28
2017-09-05T04:11:48.013Z,1018.25
2017-09-05T04:12:56.857Z,1018.26
2017-09-05T04:14:05.696Z,1018.25
2017-09-05T04:15:14.541Z,1018.32
2017-09-05T04:16:23.433Z,1018.34
2017-09-05T04:17:32.277Z,1018.36
2017-09-05T04:18:41.120Z,1018.36
2017-09-05T04:19:50.293Z,1018.42
2017-09-05T04:20:59.131Z,1018.5
2017-09-05T04:22:08.083Z,1018.46
2017-09-05T04:23:16.924Z,1018.47
2017-09-05T04:24:25.769Z,1018.46
2017-09-05T04:25:34.611Z,1018.46
2017-09-05T04:26:43.452Z,1018.49
2017-09-05T04:27:52.442Z,1018.48
2017-09-05T04:29:01.284Z,1018.46
2017-09-05T04:30:10.123Z,1018.47
2017-09-05T04:31:18.967Z,1018.44
2017-09-05T04:32:27.808Z,1018.49
2017-09-05T04:33:36.701Z,1018.46
2017-09-05T04:34:45.542Z,1018.47
2017-09-05T04:35:54.386Z,1018.5
2017-09-05T04:37:03.225Z,1018.47
2017-09-05T04:38:12.066Z,1018.43
2017-09-05T04:39:20.957Z,1018.42
2017-09-05T04:40:29.796Z,1018.41
2017-09-05T04:41:38.638Z,1018.47
2017-09-05T04:42:47.479Z,1018.42
2017-09-05T04:43:56.324Z,1018.42
2017-09-05T04:45:05.701Z,1018.41
2017-09-05T04:46:14.542Z,1018.4
2017-09-05T04:47:23.383Z,1018.36
2017-09-05T04:48:32.224Z,1018.39
2017-09-05T04:49:41.066Z,1018.37
2017-09-05T04:50:49.906Z,1018.39
2017-09-05T04:51:58.747Z,1018.39
2017-09-05T04:53:07.591Z,1018.4
2017-09-05T04:54:16.434Z,1018.39
2017-09-05T04:55:25.274Z,1018.35
2017-09-05T04:56:34.267Z,1018.34
2017-09-05T04:57:43.107Z,1018.35
2017-09-05T04:58:51.946Z,1018.4
2017-09-05T05:00:00.788Z,1018.37
2017-09-05T05:01:09.629Z,1018.37
2017-09-05T05:02:18.523Z,1018.34
2017-09-05T05:03:27.365Z,1018.37
2017-09-05T05:04:36.204Z,1018.4
2017-09-05T05:05:45.048Z,1018.4
2017-09-05T05:06:53.891Z,1018.42
2017-09-05T05:08:02.885Z,1018.38
2017-09-05T05:09:11.729Z,1018.44
2017-09-05T05:10:20.903Z,1018.45
2017-09-05T05:11:29.748Z,1018.39
2017-09-05T05:12:38.932Z,1018.45
2017-09-05T05:13:47.925Z,1018.46
2017-09-05T05:14:56.779Z,1018.44
2017-09-05T05:16:05.624Z,1018.42
2017-09-05T05:17:14.469Z,1018.46
2017-09-05T05:18:23.310Z,1018.44
2017-09-05T05:19:32.306Z,1018.44
2017-09-05T05:20:41.145Z,1018.46
2017-09-05T05:21:49.988Z,1018.44
2017-09-05T05:22:59.006Z,1018.45
2017-09-05T05:24:07.845Z,1018.46
2017-09-05T05:25:16.690Z,1018.42
2017-09-05T05:26:25.531Z,1018.42
2017-09-05T05:27:34.383Z,1018.47
2017-09-05T05:28:43.228Z,1018.42
2017-09-05T05:29:52.074Z,1018.4
2017-09-05T05:31:00.919Z,1018.35
2017-09-05T05:32:09.762Z,1018.4
2017-09-05T05:33:18.604Z,1018.4
2017-09-05T05:34:27.447Z,1018.35
2017-09-05T05:35:36.288Z,1018.31
2017-09-05T05:36:45.130Z,1018.33
2017-09-05T05:37:53.974Z,1018.31
2017-09-05T05:39:02.815Z,1018.29
2017-09-05T05:40:11.658Z,1018.34
2017-09-05T05:41:20.501Z,1018.39
2017-09-05T05:42:29.344Z,1018.39
2017-09-05T05:43:38.188Z,1018.43
2017-09-05T05:44:47.050Z,1018.41
2017-09-05T05:45:55.893Z,1018.43
2017-09-05T05:47:04.737Z,1018.41
2017-09-05T05:48:13.582Z,1018.41
2017-09-05T05:49:22.425Z,1018.39
2017-09-05T05:50:31.370Z,1018.41
2017-09-05T05:51:40.214Z,1018.34
2017-09-05T05:52:49.056Z,1018.39
2017-09-05T05:53:57.898Z,1018.36
2017-09-05T05:55:06.741Z,1018.34
2017-09-05T05:56:15.838Z,1018.33
2017-09-05T05:57:24.683Z,1018.27
2017-09-05T05:58:33.855Z,1018.27
2017-09-05T05:59:42.699Z,1018.24
2017-09-05T06:00:51.539Z,1018.25
2017-09-05T06:02:00.533Z,1018.27
2017-09-05T06:03:09.377Z,1018.26
2017-09-05T06:04:18.222Z,1018.23
2017-09-05T06:05:27.065Z,1018.27
2017-09-05T06:06:35.908Z,1018.29
2017-09-05T06:07:44.801Z,1018.25
2017-09-05T06:08:53.973Z,1018.25
2017-09-05T06:10:02.816Z,1018.24
2017-09-05T06:11:11.660Z,1018.24
2017-09-05T06:12:20.501Z,1018.26
2017-09-05T06:13:29.596Z,1018.24
2017-09-05T06:14:38.440Z,1018.26
2017-09-05T06:15:47.286Z,1018.26
2017-09-05T06:16:56.130Z,1018.25
2017-09-05T06:18:04.974Z,1018.29
2017-09-05T06:19:13.967Z,1018.28
2017-09-05T06:20:22.811Z,1018.3
2017-09-05T06:21:31.655Z,1018.3
2017-09-05T06:22:40.498Z,1018.29
2017-09-05T06:23:49.343Z,1018.28
2017-09-05T06:24:58.237Z,1018.3
2017-09-05T06:26:07.466Z,1018.26
2017-09-05T06:27:16.311Z,1018.25
2017-09-05T06:28:25.156Z,1018.28
2017-09-05T06:29:34.001Z,1018.26
2017-09-05T06:30:42.994Z,1018.28
2017-09-05T06:31:51.840Z,1018.24
2017-09-05T06:33:00.685Z,1018.31
2017-09-05T06:34:09.530Z,1018.27
2017-09-05T06:35:18.374Z,1018.26
2017-09-05T06:36:27.468Z,1018.3
2017-09-05T06:37:36.313Z,1018.29
2017-09-05T06:38:45.157Z,1018.26
2017-09-05T06:39:54.002Z,1018.28
2017-09-05T06:41:02.844Z,1018.23
2017-09-05T06:42:11.690Z,1018.25
2017-09-05T06:43:20.532Z,1018.24
2017-09-05T06:44:29.378Z,1018.2
2017-09-05T06:45:38.224Z,1018.22
2017-09-05T06:46:47.067Z,1018.23
2017-09-05T06:47:56.063Z,1018.22
2017-09-05T06:49:04.906Z,1018.15
2017-09-05T06:50:13.754Z,1018.18
2017-09-05T06:51:22.602Z,1018.17
2017-09-05T06:52:31.448Z,1018.18
2017-09-05T06:53:40.443Z,1018.19
2017-09-05T06:54:49.290Z,1018.2
2017-09-05T06:55:58.135Z,1018.22
2017-09-05T06:57:06.982Z,1018.16
2017-09-05T06:58:15.824Z,1018.17
2017-09-05T06:59:25.069Z,1018.16
2017-09-05T07:00:33.912Z,1018.12
2017-09-05T07:01:42.760Z,1018.09
2017-09-05T07:02:51.603Z,1018.05
2017-09-05T07:04:00.449Z,1018.06
2017-09-05T07:05:09.548Z,1018.07
2017-09-05T07:06:18.395Z,1018.09
2017-09-05T07:07:27.238Z,1018.08
2017-09-05T07:08:36.083Z,1018.09
2017-09-05T07:09:44.926Z,1018.1
2017-09-05T07:10:53.823Z,1018.12
2017-09-05T07:12:02.671Z,1018.13
2017-09-05T07:13:11.518Z,1018.11
2017-09-05T07:14:20.365Z,1018.1
2017-09-05T07:15:29.211Z,1018.1
2017-09-05T07:16:38.160Z,1018.11
2017-09-05T07:17:47.005Z,1018.09
2017-09-05T07:18:55.850Z,1018.14
2017-09-05T07:20:04.704Z,1018.13
2017-09-05T07:21:13.553Z,1018.15
2017-09-05T07:22:22.448Z,1018.15
2017-09-05T07:23:31.297Z,1018.12
2017-09-05T07:24:40.147Z,1018.15
2017-09-05T07:25:48.992Z,1018.13
2017-09-05T07:26:57.838Z,1018.15
2017-09-05T07:28:06.686Z,1018.12
2017-09-05T07:29:15.532Z,1018.18
2017-09-05T07:30:24.378Z,1018.1
2017-09-05T07:31:33.223Z,1018.1
2017-09-05T07:32:42.067Z,1018.08
2017-09-05T07:33:51.063Z,1018.11
2017-09-05T07:34:59.908Z,1018.07
2017-09-05T07:36:08.752Z,1018.09
2017-09-05T07:37:17.598Z,1018.11
2017-09-05T07:38:26.492Z,1018.06
2017-09-05T07:39:35.823Z,1018.08
2017-09-05T07:40:44.669Z,1018.08
2017-09-05T07:41:53.515Z,1018.03
2017-09-05T07:43:02.361Z,1018.02
2017-09-05T07:44:11.537Z,1018.06
2017-09-05T07:45:20.536Z,1018.08
2017-09-05T07:46:29.381Z,1018.01
2017-09-05T07:47:38.226Z,1018.05
2017-09-05T07:48:47.072Z,1018.03
2017-09-05T07:49:55.915Z,1018.01
2017-09-05T07:51:05.013Z,1017.99
2017-09-05T07:52:13.860Z,1018.01
2017-09-05T07:53:23.049Z,1018.03
2017-09-05T07:54:31.897Z,1018.04
2017-09-05T07:55:40.743Z,1018.03
2017-09-05T07:56:49.739Z,1018.05
2017-09-05T07:57:58.586Z,1018.04
2017-09-05T07:59:07.433Z,1018.06
2017-09-05T08:00:16.280Z,1018.05
2017-09-05T08:01:25.128Z,1018.08
2017-09-05T08:02:34.126Z,1018.08
2017-09-05T08:03:42.972Z,1018.1
2017-09-05T08:04:51.819Z,1018.06
2017-09-05T08:06:00.671Z,1018.01
2017-09-05T08:07:09.521Z,1017.99
2017-09-05T08:08:18.569Z,1018
2017-09-05T08:09:27.417Z,1017.98
2017-09-05T08:10:36.262Z,1017.99
2017-09-05T08:11:45.110Z,1017.97
2017-09-05T08:12:53.966Z,1017.99
2017-09-05T08:14:02.961Z,1017.99
2017-09-05T08:15:11.808Z,1018.01
2017-09-05T08:16:20.656Z,1018.01
2017-09-05T08:17:29.505Z,1017.99
2017-09-05T08:18:38.353Z,1017.98
2017-09-05T08:19:47.249Z,1017.98
2017-09-05T08:20:56.097Z,1018.03
2017-09-05T08:22:04.943Z,1018
2017-09-05T08:23:13.791Z,1018.01
2017-09-05T08:24:22.641Z,1018.02
2017-09-05T08:25:31.489Z,1018.05
2017-09-05T08:26:40.335Z,1018.1
2017-09-05T08:27:49.186Z,1018.09
2017-09-05T08:28:58.034Z,1018.13
2017-09-05T08:30:06.887Z,1018.11
2017-09-05T08:31:15.934Z,1018.17
2017-09-05T08:32:24.782Z,1018.16
2017-09-05T08:33:33.628Z,1018.16
2017-09-05T08:34:42.478Z,1018.16
2017-09-05T08:35:51.327Z,1018.12
2017-09-05T08:37:00.325Z,1018.14
2017-09-05T08:38:09.171Z,1018.15
2017-09-05T08:39:18.020Z,1018.14
2017-09-05T08:40:27.202Z,1018.12
2017-09-05T08:41:36.049Z,1018.13
2017-09-05T08:42:44.946Z,1018.12
2017-09-05T08:43:53.795Z,1018.13
2017-09-05T08:45:02.642Z,1018.13
2017-09-05T08:46:11.489Z,1018.13
2017-09-05T08:47:20.337Z,1018.1
2017-09-05T08:48:29.336Z,1018.17
2017-09-05T08:49:38.184Z,1018.12
2017-09-05T08:50:47.031Z,1018.14
2017-09-05T08:51:55.877Z,1018.15
2017-09-05T08:53:04.725Z,1018.15
2017-09-05T08:54:13.622Z,1018.17
2017-09-05T08:55:22.469Z,1018.19
2017-09-05T08:56:31.318Z,1018.16
2017-09-05T08:57:40.165Z,1018.11
2017-09-05T08:58:49.014Z,1018.1
2017-09-05T08:59:58.015Z,1018.1
2017-09-05T09:01:06.864Z,1018.08
2017-09-05T09:02:15.714Z,1018.05
2017-09-05T09:03:24.903Z,1018.08
2017-09-05T09:04:33.753Z,1018.06
2017-09-05T09:05:42.652Z,1018.09
2017-09-05T09:06:51.835Z,1018.05
2017-09-05T09:08:00.684Z,1018.09
2017-09-05T09:09:09.534Z,1018.1
2017-09-05T09:10:18.382Z,1018.12
2017-09-05T09:11:27.379Z,1018.12
2017-09-05T09:12:36.227Z,1018.13
2017-09-05T09:13:45.079Z,1018.18
2017-09-05T09:14:53.924Z,1018.14
2017-09-05T09:16:02.773Z,1018.12
2017-09-05T09:17:11.673Z,1018.08
2017-09-05T09:18:20.523Z,1018.08
2017-09-05T09:19:29.373Z,1018.1
2017-09-05T09:20:38.222Z,1018.09
2017-09-05T09:21:47.072Z,1018.11
2017-09-05T09:22:56.172Z,1018.03
2017-09-05T09:24:05.021Z,1018.09
2017-09-05T09:25:13.868Z,1018.05
2017-09-05T09:26:22.719Z,1018.04
2017-09-05T09:27:32.008Z,1018.03
2017-09-05T09:28:40.876Z,1018.07
2017-09-05T09:29:49.728Z,1018.05
2017-09-05T09:30:58.579Z,1018.03
2017-09-05T09:32:07.429Z,1018.02
2017-09-05T09:33:16.280Z,1018.03
2017-09-05T09:34:25.281Z,1017.97
2017-09-05T09:35:34.463Z,1017.98
2017-09-05T09:36:43.312Z,1017.98
2017-09-05T09:37:52.160Z,1017.97
2017-09-05T09:39:01.009Z,1017.98
2017-09-05T09:40:09.962Z,1017.95
2017-09-05T09:41:18.814Z,1017.95
2017-09-05T09:42:27.998Z,1018
2017-09-05T09:43:36.850Z,1017.95
2017-09-05T09:44:45.701Z,1017.91
2017-09-05T09:45:54.751Z,1017.92
2017-09-05T09:47:03.932Z,1017.9
2017-09-05T09:48:12.781Z,1017.92
2017-09-05T09:49:21.631Z,1017.91
2017-09-05T09:50:30.483Z,1017.94
2017-09-05T09:51:39.386Z,1017.91
2017-09-05T09:52:48.238Z,1017.91
2017-09-05T09:53:57.116Z,1017.94
2017-09-05T09:55:05.938Z,1017.95
2017-09-05T09:56:14.794Z,1017.95
2017-09-05T09:57:23.752Z,1017.96
2017-09-05T09:58:32.603Z,1017.95
2017-09-05T09:59:41.456Z,1017.95
2017-09-05T10:00:50.307Z,1017.97
2017-09-05T10:01:59.156Z,1017.91
2017-09-05T10:03:08.156Z,1017.94
2017-09-05T10:04:17.008Z,1017.93
2017-09-05T10:05:25.859Z,1017.94
2017-09-05T10:06:34.709Z,1017.96
2017-09-05T10:07:43.902Z,1017.95
2017-09-05T10:08:52.800Z,1017.96
2017-09-05T10:10:01.651Z,1017.92
2017-09-05T10:11:10.504Z,1017.95
2017-09-05T10:12:19.354Z,1017.96
2017-09-05T10:13:28.871Z,1017.95
2017-09-05T10:14:37.925Z,1017.95
2017-09-05T10:15:46.775Z,1017.99
2017-09-05T10:16:55.627Z,1017.96
2017-09-05T10:18:04.477Z,1018
2017-09-05T10:19:13.326Z,1017.96
2017-09-05T10:20:22.227Z,1017.94
2017-09-05T10:21:31.079Z,1017.9
2017-09-05T10:22:40.271Z,1017.87
2017-09-05T10:23:49.124Z,1017.91
2017-09-05T10:24:57.976Z,1017.85
2017-09-05T10:26:06.996Z,1017.86
2017-09-05T10:27:15.846Z,1017.82
2017-09-05T10:28:24.697Z,1017.83
2017-09-05T10:29:33.552Z,1017.8
2017-09-05T10:30:42.745Z,1017.79
2017-09-05T10:31:51.746Z,1017.85
2017-09-05T10:33:00.599Z,1017.81
2017-09-05T10:34:09.449Z,1017.82
2017-09-05T10:35:18.643Z,1017.81
2017-09-05T10:36:27.832Z,1017.8
2017-09-05T10:37:36.681Z,1017.85
2017-09-05T10:38:45.533Z,1017.82
2017-09-05T10:39:54.419Z,1017.8
2017-09-05T10:41:03.271Z,1017.85
2017-09-05T10:42:12.123Z,1017.82
2017-09-05T10:43:21.023Z,1017.84
2017-09-05T10:44:29.875Z,1017.8
2017-09-05T10:45:38.726Z,1017.81
2017-09-05T10:46:47.579Z,1017.79
2017-09-05T10:47:56.433Z,1017.81
2017-09-05T10:49:05.438Z,1017.79
2017-09-05T10:50:14.290Z,1017.76
2017-09-05T10:51:23.204Z,1017.78
2017-09-05T10:52:32.058Z,1017.74
2017-09-05T10:53:40.910Z,1017.73
2017-09-05T10:54:49.812Z,1017.73
2017-09-05T10:55:58.663Z,1017.73
2017-09-05T10:57:07.517Z,1017.73
2017-09-05T10:58:16.365Z,1017.8
2017-09-05T10:59:25.217Z,1017.67
2017-09-05T11:00:34.215Z,1017.8
2017-09-05T11:01:43.068Z,1017.79
2017-09-05T11:02:51.925Z,1017.81
2017-09-05T11:04:00.775Z,1017.79
2017-09-05T11:05:09.960Z,1017.83
2017-09-05T11:06:18.862Z,1017.79
2017-09-05T11:07:27.712Z,1017.82
2017-09-05T11:08:36.564Z,1017.82
2017-09-05T11:09:45.414Z,1017.81
2017-09-05T11:10:54.264Z,1017.83
2017-09-05T11:12:03.262Z,1017.82
2017-09-05T11:13:12.115Z,1017.73
2017-09-05T11:14:20.966Z,1017.79
2017-09-05T11:15:29.815Z,1017.77
2017-09-05T11:16:38.668Z,1017.77
2017-09-05T11:17:47.573Z,1017.78
2017-09-05T11:18:56.439Z,1017.72
2017-09-05T11:20:05.289Z,1017.74
2017-09-05T11:21:14.137Z,1017.72
2017-09-05T11:22:22.992Z,1017.68
2017-09-05T11:23:31.891Z,1017.73
2017-09-05T11:24:40.743Z,1017.74
2017-09-05T11:25:49.595Z,1017.69
2017-09-05T11:26:58.478Z,1017.69
2017-09-05T11:28:07.667Z,1017.72
2017-09-05T11:29:16.671Z,1017.75
2017-09-05T11:30:25.522Z,1017.73
2017-09-05T11:31:34.385Z,1017.68
2017-09-05T11:32:43.236Z,1017.68
2017-09-05T11:33:52.150Z,1017.67
2017-09-05T11:35:01.166Z,1017.68
2017-09-05T11:36:10.021Z,1017.69
2017-09-05T11:37:18.873Z,1017.73
2017-09-05T11:38:27.732Z,1017.7
2017-09-05T11:39:36.914Z,1017.71
2017-09-05T11:40:45.815Z,1017.66
2017-09-05T11:41:54.666Z,1017.69
2017-09-05T11:43:03.517Z,1017.67
2017-09-05T11:44:12.371Z,1017.64
2017-09-05T11:45:21.275Z,1017.72
2017-09-05T11:46:30.228Z,1017.66
2017-09-05T11:47:39.088Z,1017.64
2017-09-05T11:48:47.942Z,1017.68
2017-09-05T11:49:56.792Z,1017.63
2017-09-05T11:51:05.647Z,1017.66
2017-09-05T11:52:14.547Z,1017.65
2017-09-05T11:53:23.403Z,1017.6
2017-09-05T11:54:32.254Z,1017.57
2017-09-05T11:55:41.435Z,1017.6
2017-09-05T11:56:50.288Z,1017.56
2017-09-05T11:57:59.340Z,1017.55
2017-09-05T11:59:08.192Z,1017.59
2017-09-05T12:00:17.045Z,1017.54
2017-09-05T12:01:25.895Z,1017.59
2017-09-05T12:02:34.747Z,1017.55
2017-09-05T12:03:43.801Z,1017.51
2017-09-05T12:04:52.652Z,1017.54
2017-09-05T12:06:01.506Z,1017.59
2017-09-05T12:07:10.356Z,1017.57
2017-09-05T12:08:19.208Z,1017.59
2017-09-05T12:09:28.211Z,1017.58
2017-09-05T12:10:37.066Z,1017.56
2017-09-05T12:11:45.920Z,1017.58
2017-09-05T12:12:55.107Z,1017.56
2017-09-05T12:14:04.292Z,1017.5
2017-09-05T12:15:13.295Z,1017.5
2017-09-05T12:16:22.146Z,1017.49
2017-09-05T12:17:31.000Z,1017.53
2017-09-05T12:18:39.852Z,1017.51
2017-09-05T12:19:49.035Z,1017.53
2017-09-05T12:20:57.938Z,1017.52
2017-09-05T12:22:06.791Z,1017.52
2017-09-05T12:23:15.645Z,1017.47
2017-09-05T12:24:24.500Z,1017.49
2017-09-05T12:25:33.351Z,1017.48
2017-09-05T12:26:42.201Z,1017.52
2017-09-05T12:27:51.051Z,1017.5
2017-09-05T12:28:59.903Z,1017.48
2017-09-05T12:30:08.753Z,1017.49
2017-09-05T12:31:17.604Z,1017.5
2017-09-05T12:32:26.557Z,1017.49
2017-09-05T12:33:35.407Z,1017.46
2017-09-05T12:34:44.258Z,1017.45
2017-09-05T12:35:53.112Z,1017.44
2017-09-05T12:37:01.963Z,1017.41
2017-09-05T12:38:11.065Z,1017.39
2017-09-05T12:39:19.918Z,1017.38
2017-09-05T12:40:28.775Z,1017.35
2017-09-05T12:41:37.629Z,1017.4
2017-09-05T12:42:46.479Z,1017.36
2017-09-05T12:43:55.432Z,1017.37
2017-09-05T12:45:04.286Z,1017.33
2017-09-05T12:46:13.137Z,1017.32
2017-09-05T12:47:21.986Z,1017.34
2017-09-05T12:48:30.837Z,1017.34
2017-09-05T12:49:39.839Z,1017.35
2017-09-05T12:50:48.689Z,1017.36
2017-09-05T12:51:57.558Z,1017.3
2017-09-05T12:53:06.459Z,1017.28
2017-09-05T12:54:15.312Z,1017.25
2017-09-05T12:55:24.314Z,1017.31
2017-09-05T12:56:33.169Z,1017.33
2017-09-05T12:57:42.026Z,1017.29
2017-09-05T12:58:51.025Z,1017.26
2017-09-05T12:59:59.879Z,1017.28
2017-09-05T13:01:08.731Z,1017.29
2017-09-05T13:02:17.580Z,1017.32
2017-09-05T13:03:26.432Z,1017.3
2017-09-05T13:04:35.301Z,1017.29
2017-09-05T13:05:44.500Z,1017.26
2017-09-05T13:06:53.455Z,1017.29
2017-09-05T13:08:02.639Z,1017.29
2017-09-05T13:09:11.492Z,1017.29
2017-09-05T13:10:20.346Z,1017.28
2017-09-05T13:11:29.197Z,1017.31
2017-09-05T13:12:38.223Z,1017.24
2017-09-05T13:13:47.088Z,1017.21
2017-09-05T13:14:55.939Z,1017.24
2017-09-05T13:16:04.792Z,1017.22
2017-09-05T13:17:13.641Z,1017.21
2017-09-05T13:18:22.641Z,1017.21
2017-09-05T13:19:31.492Z,1017.18
2017-09-05T13:20:40.346Z,1017.18
2017-09-05T13:21:49.406Z,1017.14
2017-09-05T13:22:58.258Z,1017.18
2017-09-05T13:24:07.209Z,1017.17
2017-09-05T13:25:16.066Z,1017.16
2017-09-05T13:26:24.918Z,1017.16
2017-09-05T13:27:33.774Z,1017.14
2017-09-05T13:28:42.624Z,1017.2
2017-09-05T13:29:51.861Z,1017.11
2017-09-05T13:31:00.713Z,1017.08
2017-09-05T13:32:09.569Z,1017.09
2017-09-05T13:33:18.442Z,1017.08
2017-09-05T13:34:27.371Z,1017.07
2017-09-05T13:35:36.405Z,1017.02
2017-09-05T13:36:45.461Z,1017.06
2017-09-05T13:37:54.315Z,1017.02
2017-09-05T13:39:03.168Z,1017.02
2017-09-05T13:40:12.022Z,1016.99
2017-09-05T13:41:20.926Z,1017.04
2017-09-05T13:42:29.777Z,1017.07
2017-09-05T13:43:38.629Z,1017.03
2017-09-05T13:44:47.502Z,1017.01
2017-09-05T13:45:56.355Z,1017.04
2017-09-05T13:47:05.532Z,1017.05
2017-09-05T13:48:14.757Z,1017.02
2017-09-05T13:49:23.613Z,1016.95
2017-09-05T13:50:32.464Z,1016.96
2017-09-05T13:51:41.317Z,1016.93
2017-09-05T13:52:50.224Z,1016.95
2017-09-05T13:53:59.079Z,1016.91
2017-09-05T13:55:07.930Z,1016.92
2017-09-05T13:56:16.782Z,1016.88